sensor_id;sensor_type;location;lat;lon;timestamp;P1;durP1;ratioP1;P2;durP2;ratioP2
27889;SDS011;15238;49.082;9.102;2023-06-22T00:01:02;11.10;;;6.25;;
27889;SDS011;15238;49.082;9.102;2023-06-22T00:03:03;13.07;;;7.25;;
27889;SDS011;15238;49.082;9.102;2023-06-22T00:05:03;9.27;;;6.90;;
27889;SDS011;15238;49.082;9.102;2023-06-22T00:07:04;14.85;;;6.45;;
27889;SDS011;15238;49.082;9.102;2023-06-22T00:09:04;9.35;;;6.40;;
27889;SDS011;15238;49.082;9.102;2023-06-22T00:11:06;14.05;;;6.47;;
27889;SDS011;15238;49.082;9.102;2023-06-22T00:13:07;11.32;;;6.78;;
27889;SDS011;15238;49.082;9.102;2023-06-22T00:15:09;13.93;;;7.38;;
27889;SDS011;15238;49.082;9.102;2023-06-22T00:17:09;13.43;;;7.57;;
27889;SDS011;15238;49.082;9.102;2023-06-22T00:19:10;12.05;;;7.50;;
27889;SDS011;15238;49.082;9.102;2023-06-22T00:21:11;18.35;;;7.68;;
27889;SDS011;15238;49.082;9.102;2023-06-22T00:23:12;12.98;;;7.90;;
27889;SDS011;15238;49.082;9.102;2023-06-22T00:25:15;14.02;;;7.07;;
27889;SDS011;15238;49.082;9.102;2023-06-22T00:27:16;9.20;;;7.38;;
27889;SDS011;15238;49.082;9.102;2023-06-22T00:29:16;11.38;;;6.70;;
27889;SDS011;15238;49.082;9.102;2023-06-22T00:31:18;12.05;;;7.20;;
27889;SDS011;15238;49.082;9.102;2023-06-22T00:33:19;13.10;;;7.65;;
27889;SDS011;15238;49.082;9.102;2023-06-22T00:35:19;13.02;;;7.93;;
27889;SDS011;15238;49.082;9.102;2023-06-22T00:37:20;12.55;;;7.93;;
27889;SDS011;15238;49.082;9.102;2023-06-22T00:39:25;15.70;;;8.18;;
27889;SDS011;15238;49.082;9.102;2023-06-22T00:41:25;13.55;;;7.32;;
27889;SDS011;15238;49.082;9.102;2023-06-22T00:43:28;10.82;;;7.70;;
27889;SDS011;15238;49.082;9.102;2023-06-22T00:45:29;10.23;;;6.97;;
27889;SDS011;15238;49.082;9.102;2023-06-22T00:47:29;11.75;;;6.50;;
27889;SDS011;15238;49.082;9.102;2023-06-22T00:49:30;11.02;;;7.05;;
27889;SDS011;15238;49.082;9.102;2023-06-22T00:51:31;14.45;;;6.90;;
27889;SDS011;15238;49.082;9.102;2023-06-22T00:53:32;14.32;;;6.57;;
27889;SDS011;15238;49.082;9.102;2023-06-22T00:55:35;10.30;;;6.50;;
27889;SDS011;15238;49.082;9.102;2023-06-22T00:57:37;11.23;;;7.20;;
27889;SDS011;15238;49.082;9.102;2023-06-22T00:59:38;12.07;;;6.70;;
27889;SDS011;15238;49.082;9.102;2023-06-22T01:01:39;10.55;;;6.90;;
27889;SDS011;15238;49.082;9.102;2023-06-22T01:03:41;16.98;;;7.43;;
27889;SDS011;15238;49.082;9.102;2023-06-22T01:05:41;9.20;;;6.82;;
27889;SDS011;15238;49.082;9.102;2023-06-22T01:10:22;13.88;;;6.97;;
27889;SDS011;15238;49.082;9.102;2023-06-22T01:12:44;10.52;;;6.88;;
27889;SDS011;15238;49.082;9.102;2023-06-22T01:14:55;11.25;;;7.00;;
27889;SDS011;15238;49.082;9.102;2023-06-22T01:17:05;16.27;;;6.93;;
27889;SDS011;15238;49.082;9.102;2023-06-22T01:21:37;13.13;;;6.70;;
27889;SDS011;15238;49.082;9.102;2023-06-22T01:25:53;9.85;;;6.68;;
27889;SDS011;15238;49.082;9.102;2023-06-22T01:32:17;11.52;;;7.55;;
27889;SDS011;15238;49.082;9.102;2023-06-22T01:34:18;14.23;;;6.53;;
27889;SDS011;15238;49.082;9.102;2023-06-22T01:36:19;17.60;;;7.00;;
27889;SDS011;15238;49.082;9.102;2023-06-22T01:38:22;13.75;;;7.28;;
27889;SDS011;15238;49.082;9.102;2023-06-22T01:40:23;8.88;;;7.55;;
27889;SDS011;15238;49.082;9.102;2023-06-22T01:42:24;12.68;;;8.63;;
27889;SDS011;15238;49.082;9.102;2023-06-22T01:44:25;12.32;;;8.45;;
27889;SDS011;15238;49.082;9.102;2023-06-22T01:46:27;14.02;;;8.60;;
27889;SDS011;15238;49.082;9.102;2023-06-22T01:48:27;12.95;;;8.82;;
27889;SDS011;15238;49.082;9.102;2023-06-22T01:50:28;12.23;;;8.23;;
27889;SDS011;15238;49.082;9.102;2023-06-22T01:52:29;16.02;;;8.80;;
27889;SDS011;15238;49.082;9.102;2023-06-22T01:54:30;22.27;;;9.23;;
27889;SDS011;15238;49.082;9.102;2023-06-22T01:56:30;16.17;;;9.70;;
27889;SDS011;15238;49.082;9.102;2023-06-22T01:58:32;13.75;;;8.68;;
27889;SDS011;15238;49.082;9.102;2023-06-22T02:00:34;13.00;;;9.02;;
27889;SDS011;15238;49.082;9.102;2023-06-22T02:02:59;18.23;;;9.95;;
27889;SDS011;15238;49.082;9.102;2023-06-22T02:05:04;14.18;;;8.80;;
27889;SDS011;15238;49.082;9.102;2023-06-22T02:07:09;16.02;;;9.23;;
27889;SDS011;15238;49.082;9.102;2023-06-22T02:09:14;16.17;;;8.98;;
27889;SDS011;15238;49.082;9.102;2023-06-22T02:11:17;16.90;;;8.80;;
27889;SDS011;15238;49.082;9.102;2023-06-22T02:13:19;19.83;;;9.50;;
27889;SDS011;15238;49.082;9.102;2023-06-22T02:15:20;18.80;;;9.48;;
27889;SDS011;15238;49.082;9.102;2023-06-22T02:17:21;18.30;;;9.25;;
27889;SDS011;15238;49.082;9.102;2023-06-22T02:19:23;16.67;;;8.93;;
27889;SDS011;15238;49.082;9.102;2023-06-22T02:21:25;17.80;;;8.82;;
27889;SDS011;15238;49.082;9.102;2023-06-22T02:23:26;18.63;;;7.80;;
27889;SDS011;15238;49.082;9.102;2023-06-22T02:25:26;13.45;;;8.15;;
27889;SDS011;15238;49.082;9.102;2023-06-22T02:27:27;16.25;;;8.43;;
27889;SDS011;15238;49.082;9.102;2023-06-22T02:29:28;14.70;;;8.38;;
27889;SDS011;15238;49.082;9.102;2023-06-22T02:31:28;14.73;;;8.35;;
27889;SDS011;15238;49.082;9.102;2023-06-22T02:33:30;14.82;;;8.75;;
27889;SDS011;15238;49.082;9.102;2023-06-22T02:35:30;18.92;;;9.00;;
27889;SDS011;15238;49.082;9.102;2023-06-22T02:37:32;20.65;;;8.80;;
27889;SDS011;15238;49.082;9.102;2023-06-22T02:39:32;14.75;;;8.70;;
27889;SDS011;15238;49.082;9.102;2023-06-22T02:41:33;15.55;;;8.60;;
27889;SDS011;15238;49.082;9.102;2023-06-22T02:43:33;15.90;;;8.23;;
27889;SDS011;15238;49.082;9.102;2023-06-22T02:45:34;25.30;;;8.90;;
27889;SDS011;15238;49.082;9.102;2023-06-22T02:47:34;24.08;;;9.07;;
27889;SDS011;15238;49.082;9.102;2023-06-22T02:49:35;13.98;;;8.75;;
27889;SDS011;15238;49.082;9.102;2023-06-22T02:51:37;30.98;;;9.48;;
27889;SDS011;15238;49.082;9.102;2023-06-22T02:53:39;20.15;;;8.38;;
27889;SDS011;15238;49.082;9.102;2023-06-22T02:55:44;19.40;;;9.02;;
27889;SDS011;15238;49.082;9.102;2023-06-22T02:57:44;19.80;;;9.00;;
27889;SDS011;15238;49.082;9.102;2023-06-22T02:59:46;28.08;;;8.93;;
27889;SDS011;15238;49.082;9.102;2023-06-22T03:01:47;25.83;;;10.02;;
27889;SDS011;15238;49.082;9.102;2023-06-22T03:03:47;22.52;;;8.63;;
27889;SDS011;15238;49.082;9.102;2023-06-22T03:05:48;18.23;;;8.65;;
27889;SDS011;15238;49.082;9.102;2023-06-22T03:07:48;26.10;;;8.38;;
27889;SDS011;15238;49.082;9.102;2023-06-22T03:09:49;21.95;;;8.43;;
27889;SDS011;15238;49.082;9.102;2023-06-22T03:11:50;22.02;;;8.00;;
27889;SDS011;15238;49.082;9.102;2023-06-22T03:13:50;19.90;;;8.18;;
27889;SDS011;15238;49.082;9.102;2023-06-22T03:15:52;18.13;;;9.20;;
27889;SDS011;15238;49.082;9.102;2023-06-22T03:17:53;16.75;;;9.05;;
27889;SDS011;15238;49.082;9.102;2023-06-22T03:19:53;25.80;;;9.23;;
27889;SDS011;15238;49.082;9.102;2023-06-22T03:21:54;17.70;;;8.57;;
27889;SDS011;15238;49.082;9.102;2023-06-22T03:23:55;24.40;;;8.80;;
27889;SDS011;15238;49.082;9.102;2023-06-22T03:25:55;16.27;;;8.30;;
27889;SDS011;15238;49.082;9.102;2023-06-22T03:27:56;13.15;;;7.70;;
27889;SDS011;15238;49.082;9.102;2023-06-22T03:29:57;16.15;;;8.07;;
27889;SDS011;15238;49.082;9.102;2023-06-22T03:31:57;15.48;;;8.32;;
27889;SDS011;15238;49.082;9.102;2023-06-22T03:33:58;17.67;;;7.30;;
27889;SDS011;15238;49.082;9.102;2023-06-22T03:35:59;17.70;;;7.43;;
27889;SDS011;15238;49.082;9.102;2023-06-22T03:38:00;22.05;;;7.80;;
27889;SDS011;15238;49.082;9.102;2023-06-22T03:40:00;14.27;;;7.63;;
27889;SDS011;15238;49.082;9.102;2023-06-22T03:42:01;24.00;;;9.00;;
27889;SDS011;15238;49.082;9.102;2023-06-22T03:44:02;18.02;;;7.45;;
27889;SDS011;15238;49.082;9.102;2023-06-22T03:46:02;19.40;;;7.55;;
27889;SDS011;15238;49.082;9.102;2023-06-22T03:48:03;21.52;;;8.20;;
27889;SDS011;15238;49.082;9.102;2023-06-22T03:50:03;23.45;;;8.15;;
27889;SDS011;15238;49.082;9.102;2023-06-22T03:52:05;21.95;;;9.07;;
27889;SDS011;15238;49.082;9.102;2023-06-22T03:54:06;19.38;;;8.70;;
27889;SDS011;15238;49.082;9.102;2023-06-22T03:56:07;17.15;;;10.23;;
27889;SDS011;15238;49.082;9.102;2023-06-22T03:58:07;18.45;;;8.45;;
27889;SDS011;15238;49.082;9.102;2023-06-22T04:00:09;18.13;;;9.68;;
27889;SDS011;15238;49.082;9.102;2023-06-22T04:02:10;21.90;;;8.73;;
27889;SDS011;15238;49.082;9.102;2023-06-22T04:04:11;20.95;;;8.85;;
27889;SDS011;15238;49.082;9.102;2023-06-22T04:06:11;26.83;;;9.07;;
27889;SDS011;15238;49.082;9.102;2023-06-22T04:08:12;17.50;;;9.23;;
27889;SDS011;15238;49.082;9.102;2023-06-22T04:10:13;24.63;;;9.75;;
27889;SDS011;15238;49.082;9.102;2023-06-22T04:12:13;21.63;;;9.60;;
27889;SDS011;15238;49.082;9.102;2023-06-22T04:14:14;21.85;;;9.95;;
27889;SDS011;15238;49.082;9.102;2023-06-22T04:16:14;22.17;;;9.85;;
27889;SDS011;15238;49.082;9.102;2023-06-22T04:18:15;23.13;;;10.50;;
27889;SDS011;15238;49.082;9.102;2023-06-22T04:20:15;17.73;;;10.77;;
27889;SDS011;15238;49.082;9.102;2023-06-22T04:22:16;25.52;;;10.82;;
27889;SDS011;15238;49.082;9.102;2023-06-22T04:24:17;22.02;;;10.07;;
27889;SDS011;15238;49.082;9.102;2023-06-22T04:26:17;18.08;;;10.27;;
27889;SDS011;15238;49.082;9.102;2023-06-22T04:28:20;13.07;;;9.68;;
27889;SDS011;15238;49.082;9.102;2023-06-22T04:30:21;18.25;;;8.85;;
27889;SDS011;15238;49.082;9.102;2023-06-22T04:32:22;18.30;;;8.68;;
27889;SDS011;15238;49.082;9.102;2023-06-22T04:34:22;17.27;;;9.07;;
27889;SDS011;15238;49.082;9.102;2023-06-22T04:36:23;14.20;;;8.35;;
27889;SDS011;15238;49.082;9.102;2023-06-22T04:38:24;18.83;;;9.90;;
27889;SDS011;15238;49.082;9.102;2023-06-22T04:40:25;19.75;;;8.82;;
27889;SDS011;15238;49.082;9.102;2023-06-22T04:42:26;13.88;;;8.23;;
27889;SDS011;15238;49.082;9.102;2023-06-22T04:44:26;14.93;;;9.68;;
27889;SDS011;15238;49.082;9.102;2023-06-22T04:46:27;15.27;;;8.50;;
27889;SDS011;15238;49.082;9.102;2023-06-22T04:48:28;16.38;;;9.02;;
27889;SDS011;15238;49.082;9.102;2023-06-22T04:50:32;17.83;;;9.40;;
27889;SDS011;15238;49.082;9.102;2023-06-22T04:52:33;17.23;;;8.60;;
27889;SDS011;15238;49.082;9.102;2023-06-22T04:54:34;23.13;;;9.23;;
27889;SDS011;15238;49.082;9.102;2023-06-22T04:56:35;16.08;;;8.68;;
27889;SDS011;15238;49.082;9.102;2023-06-22T04:58:36;21.73;;;9.90;;
27889;SDS011;15238;49.082;9.102;2023-06-22T05:00:37;17.63;;;9.63;;
27889;SDS011;15238;49.082;9.102;2023-06-22T05:02:39;19.20;;;9.70;;
27889;SDS011;15238;49.082;9.102;2023-06-22T05:04:39;19.50;;;9.73;;
27889;SDS011;15238;49.082;9.102;2023-06-22T05:06:40;22.90;;;10.07;;
27889;SDS011;15238;49.082;9.102;2023-06-22T05:08:40;20.70;;;9.02;;
27889;SDS011;15238;49.082;9.102;2023-06-22T05:10:41;16.92;;;9.75;;
27889;SDS011;15238;49.082;9.102;2023-06-22T05:12:41;19.05;;;9.50;;
27889;SDS011;15238;49.082;9.102;2023-06-22T05:14:42;15.10;;;9.45;;
27889;SDS011;15238;49.082;9.102;2023-06-22T05:16:43;14.35;;;9.02;;
27889;SDS011;15238;49.082;9.102;2023-06-22T05:18:44;15.35;;;8.88;;
27889;SDS011;15238;49.082;9.102;2023-06-22T05:20:45;15.52;;;9.00;;
27889;SDS011;15238;49.082;9.102;2023-06-22T05:22:46;16.35;;;9.35;;
27889;SDS011;15238;49.082;9.102;2023-06-22T05:24:46;16.55;;;9.10;;
27889;SDS011;15238;49.082;9.102;2023-06-22T05:26:47;13.85;;;9.07;;
27889;SDS011;15238;49.082;9.102;2023-06-22T05:28:48;18.58;;;9.13;;
27889;SDS011;15238;49.082;9.102;2023-06-22T05:30:48;20.35;;;8.95;;
27889;SDS011;15238;49.082;9.102;2023-06-22T05:32:49;12.48;;;8.77;;
27889;SDS011;15238;49.082;9.102;2023-06-22T05:34:49;11.05;;;8.45;;
27889;SDS011;15238;49.082;9.102;2023-06-22T05:36:50;21.27;;;9.68;;
27889;SDS011;15238;49.082;9.102;2023-06-22T05:38:56;11.30;;;8.82;;
27889;SDS011;15238;49.082;9.102;2023-06-22T05:40:56;16.02;;;9.40;;
27889;SDS011;15238;49.082;9.102;2023-06-22T05:42:57;19.20;;;9.07;;
27889;SDS011;15238;49.082;9.102;2023-06-22T05:44:57;14.48;;;8.63;;
27889;SDS011;15238;49.082;9.102;2023-06-22T05:46:58;13.02;;;7.95;;
27889;SDS011;15238;49.082;9.102;2023-06-22T05:48:59;17.15;;;8.50;;
27889;SDS011;15238;49.082;9.102;2023-06-22T05:51:00;19.35;;;9.95;;
27889;SDS011;15238;49.082;9.102;2023-06-22T05:53:00;17.83;;;8.25;;
27889;SDS011;15238;49.082;9.102;2023-06-22T05:55:01;10.98;;;8.20;;
27889;SDS011;15238;49.082;9.102;2023-06-22T05:57:03;15.10;;;8.50;;
27889;SDS011;15238;49.082;9.102;2023-06-22T05:59:04;18.35;;;9.18;;
27889;SDS011;15238;49.082;9.102;2023-06-22T06:01:04;12.63;;;7.47;;
27889;SDS011;15238;49.082;9.102;2023-06-22T06:03:06;17.35;;;8.02;;
27889;SDS011;15238;49.082;9.102;2023-06-22T06:05:07;12.55;;;7.25;;
27889;SDS011;15238;49.082;9.102;2023-06-22T06:07:08;11.07;;;7.65;;
27889;SDS011;15238;49.082;9.102;2023-06-22T06:09:08;14.98;;;8.30;;
27889;SDS011;15238;49.082;9.102;2023-06-22T06:11:09;12.80;;;8.55;;
27889;SDS011;15238;49.082;9.102;2023-06-22T06:13:09;10.95;;;7.88;;
27889;SDS011;15238;49.082;9.102;2023-06-22T06:15:10;13.68;;;7.90;;
27889;SDS011;15238;49.082;9.102;2023-06-22T06:17:11;13.55;;;7.50;;
27889;SDS011;15238;49.082;9.102;2023-06-22T06:19:11;12.55;;;7.68;;
27889;SDS011;15238;49.082;9.102;2023-06-22T06:21:12;16.33;;;7.57;;
27889;SDS011;15238;49.082;9.102;2023-06-22T06:23:12;12.38;;;7.82;;
27889;SDS011;15238;49.082;9.102;2023-06-22T06:25:13;18.75;;;7.60;;
27889;SDS011;15238;49.082;9.102;2023-06-22T06:27:17;13.30;;;7.32;;
27889;SDS011;15238;49.082;9.102;2023-06-22T06:29:18;13.88;;;6.93;;
27889;SDS011;15238;49.082;9.102;2023-06-22T06:31:19;13.95;;;7.45;;
27889;SDS011;15238;49.082;9.102;2023-06-22T06:33:20;13.95;;;8.43;;
27889;SDS011;15238;49.082;9.102;2023-06-22T06:35:24;14.55;;;7.63;;
27889;SDS011;15238;49.082;9.102;2023-06-22T06:37:28;11.85;;;7.60;;
27889;SDS011;15238;49.082;9.102;2023-06-22T06:39:29;14.52;;;7.40;;
27889;SDS011;15238;49.082;9.102;2023-06-22T06:41:30;11.68;;;7.22;;
27889;SDS011;15238;49.082;9.102;2023-06-22T06:43:30;9.00;;;6.30;;
27889;SDS011;15238;49.082;9.102;2023-06-22T06:45:31;10.63;;;7.10;;
27889;SDS011;15238;49.082;9.102;2023-06-22T06:47:34;11.00;;;7.20;;
27889;SDS011;15238;49.082;9.102;2023-06-22T06:49:34;13.57;;;7.93;;
27889;SDS011;15238;49.082;9.102;2023-06-22T06:51:35;11.80;;;7.13;;
27889;SDS011;15238;49.082;9.102;2023-06-22T06:53:37;11.70;;;7.47;;
27889;SDS011;15238;49.082;9.102;2023-06-22T06:55:38;9.60;;;6.90;;
27889;SDS011;15238;49.082;9.102;2023-06-22T06:57:39;12.55;;;6.53;;
27889;SDS011;15238;49.082;9.102;2023-06-22T06:59:40;16.63;;;6.95;;
27889;SDS011;15238;49.082;9.102;2023-06-22T07:01:41;9.82;;;5.95;;
27889;SDS011;15238;49.082;9.102;2023-06-22T07:03:44;9.50;;;6.40;;
27889;SDS011;15238;49.082;9.102;2023-06-22T07:05:44;11.70;;;6.05;;
27889;SDS011;15238;49.082;9.102;2023-06-22T07:07:45;12.82;;;6.93;;
27889;SDS011;15238;49.082;9.102;2023-06-22T07:09:45;7.70;;;6.68;;
27889;SDS011;15238;49.082;9.102;2023-06-22T07:11:46;7.95;;;6.18;;
27889;SDS011;15238;49.082;9.102;2023-06-22T07:13:47;10.57;;;6.47;;
27889;SDS011;15238;49.082;9.102;2023-06-22T07:15:47;13.30;;;6.88;;
27889;SDS011;15238;49.082;9.102;2023-06-22T07:17:48;11.27;;;6.47;;
27889;SDS011;15238;49.082;9.102;2023-06-22T07:19:48;9.77;;;6.30;;
27889;SDS011;15238;49.082;9.102;2023-06-22T07:21:49;9.73;;;6.47;;
27889;SDS011;15238;49.082;9.102;2023-06-22T07:23:49;9.38;;;6.38;;
27889;SDS011;15238;49.082;9.102;2023-06-22T07:25:50;9.82;;;5.80;;
27889;SDS011;15238;49.082;9.102;2023-06-22T07:27:57;9.93;;;6.10;;
27889;SDS011;15238;49.082;9.102;2023-06-22T07:30:01;8.65;;;4.90;;
27889;SDS011;15238;49.082;9.102;2023-06-22T07:32:02;8.95;;;5.47;;
27889;SDS011;15238;49.082;9.102;2023-06-22T07:34:05;6.60;;;5.15;;
27889;SDS011;15238;49.082;9.102;2023-06-22T07:36:05;12.20;;;5.90;;
27889;SDS011;15238;49.082;9.102;2023-06-22T07:38:07;8.35;;;5.38;;
27889;SDS011;15238;49.082;9.102;2023-06-22T07:40:09;9.43;;;5.22;;
27889;SDS011;15238;49.082;9.102;2023-06-22T07:42:10;8.38;;;5.85;;
27889;SDS011;15238;49.082;9.102;2023-06-22T07:44:11;9.18;;;4.72;;
27889;SDS011;15238;49.082;9.102;2023-06-22T07:46:12;6.22;;;4.47;;
27889;SDS011;15238;49.082;9.102;2023-06-22T07:48:16;7.40;;;5.57;;
27889;SDS011;15238;49.082;9.102;2023-06-22T07:50:16;10.95;;;5.97;;
27889;SDS011;15238;49.082;9.102;2023-06-22T07:52:17;8.48;;;4.93;;
27889;SDS011;15238;49.082;9.102;2023-06-22T07:54:17;8.07;;;5.00;;
27889;SDS011;15238;49.082;9.102;2023-06-22T07:56:18;9.90;;;4.60;;
27889;SDS011;15238;49.082;9.102;2023-06-22T07:58:22;8.05;;;4.72;;
27889;SDS011;15238;49.082;9.102;2023-06-22T08:00:23;8.90;;;4.82;;
27889;SDS011;15238;49.082;9.102;2023-06-22T08:02:24;7.47;;;5.07;;
27889;SDS011;15238;49.082;9.102;2023-06-22T08:04:24;9.00;;;4.63;;
27889;SDS011;15238;49.082;9.102;2023-06-22T08:06:28;8.23;;;4.40;;
27889;SDS011;15238;49.082;9.102;2023-06-22T08:08:30;6.95;;;3.97;;
27889;SDS011;15238;49.082;9.102;2023-06-22T08:10:31;6.82;;;3.78;;
27889;SDS011;15238;49.082;9.102;2023-06-22T08:12:32;11.57;;;4.20;;
27889;SDS011;15238;49.082;9.102;2023-06-22T08:14:32;7.18;;;3.80;;
27889;SDS011;15238;49.082;9.102;2023-06-22T08:16:36;9.02;;;4.65;;
27889;SDS011;15238;49.082;9.102;2023-06-22T08:18:36;9.65;;;4.30;;
27889;SDS011;15238;49.082;9.102;2023-06-22T08:20:37;9.32;;;4.60;;
27889;SDS011;15238;49.082;9.102;2023-06-22T08:22:38;7.65;;;4.35;;
27889;SDS011;15238;49.082;9.102;2023-06-22T08:24:39;9.68;;;4.25;;
27889;SDS011;15238;49.082;9.102;2023-06-22T08:26:40;10.32;;;4.43;;
27889;SDS011;15238;49.082;9.102;2023-06-22T08:28:45;6.47;;;3.65;;
27889;SDS011;15238;49.082;9.102;2023-06-22T08:30:45;6.57;;;4.10;;
27889;SDS011;15238;49.082;9.102;2023-06-22T08:32:46;5.80;;;4.13;;
27889;SDS011;15238;49.082;9.102;2023-06-22T08:34:46;11.00;;;4.78;;
27889;SDS011;15238;49.082;9.102;2023-06-22T08:36:47;7.72;;;4.15;;
27889;SDS011;15238;49.082;9.102;2023-06-22T08:38:52;10.70;;;4.38;;
27889;SDS011;15238;49.082;9.102;2023-06-22T08:40:53;4.97;;;4.47;;
27889;SDS011;15238;49.082;9.102;2023-06-22T08:42:54;8.05;;;4.35;;
27889;SDS011;15238;49.082;9.102;2023-06-22T08:44:55;9.68;;;4.63;;
27889;SDS011;15238;49.082;9.102;2023-06-22T08:46:55;7.95;;;4.45;;
27889;SDS011;15238;49.082;9.102;2023-06-22T08:48:56;6.53;;;4.55;;
27889;SDS011;15238;49.082;9.102;2023-06-22T08:51:00;6.50;;;4.47;;
27889;SDS011;15238;49.082;9.102;2023-06-22T08:53:02;7.07;;;4.38;;
27889;SDS011;15238;49.082;9.102;2023-06-22T08:55:03;7.40;;;4.20;;
27889;SDS011;15238;49.082;9.102;2023-06-22T08:57:04;12.23;;;4.35;;
27889;SDS011;15238;49.082;9.102;2023-06-22T08:59:05;9.73;;;4.30;;
27889;SDS011;15238;49.082;9.102;2023-06-22T09:01:07;12.30;;;4.78;;
27889;SDS011;15238;49.082;9.102;2023-06-22T09:03:08;5.95;;;3.97;;
27889;SDS011;15238;49.082;9.102;2023-06-22T09:05:09;6.38;;;3.95;;
27889;SDS011;15238;49.082;9.102;2023-06-22T09:07:09;10.15;;;5.18;;
27889;SDS011;15238;49.082;9.102;2023-06-22T09:09:10;6.35;;;4.43;;
27889;SDS011;15238;49.082;9.102;2023-06-22T09:11:12;8.68;;;4.93;;
27889;SDS011;15238;49.082;9.102;2023-06-22T09:13:12;9.52;;;3.78;;
27889;SDS011;15238;49.082;9.102;2023-06-22T09:15:13;11.02;;;4.45;;
27889;SDS011;15238;49.082;9.102;2023-06-22T09:17:13;6.53;;;4.75;;
27889;SDS011;15238;49.082;9.102;2023-06-22T09:19:14;8.20;;;4.43;;
27889;SDS011;15238;49.082;9.102;2023-06-22T09:21:14;10.80;;;5.13;;
27889;SDS011;15238;49.082;9.102;2023-06-22T09:23:15;10.02;;;4.55;;
27889;SDS011;15238;49.082;9.102;2023-06-22T09:25:15;9.40;;;4.72;;
27889;SDS011;15238;49.082;9.102;2023-06-22T09:27:16;9.50;;;4.55;;
27889;SDS011;15238;49.082;9.102;2023-06-22T09:29:17;8.93;;;4.95;;
27889;SDS011;15238;49.082;9.102;2023-06-22T09:31:17;10.15;;;4.85;;
27889;SDS011;15238;49.082;9.102;2023-06-22T09:33:25;8.32;;;4.60;;
27889;SDS011;15238;49.082;9.102;2023-06-22T09:35:26;9.32;;;4.78;;
27889;SDS011;15238;49.082;9.102;2023-06-22T09:37:27;11.68;;;5.07;;
27889;SDS011;15238;49.082;9.102;2023-06-22T09:39:27;7.55;;;4.63;;
27889;SDS011;15238;49.082;9.102;2023-06-22T09:41:28;8.90;;;4.57;;
27889;SDS011;15238;49.082;9.102;2023-06-22T09:43:28;10.30;;;4.72;;
27889;SDS011;15238;49.082;9.102;2023-06-22T09:45:29;8.00;;;4.70;;
27889;SDS011;15238;49.082;9.102;2023-06-22T09:47:30;8.88;;;4.80;;
27889;SDS011;15238;49.082;9.102;2023-06-22T09:49:31;10.95;;;4.68;;
27889;SDS011;15238;49.082;9.102;2023-06-22T09:51:32;12.02;;;4.57;;
27889;SDS011;15238;49.082;9.102;2023-06-22T09:53:32;7.07;;;4.43;;
27889;SDS011;15238;49.082;9.102;2023-06-22T09:55:34;6.40;;;5.00;;
27889;SDS011;15238;49.082;9.102;2023-06-22T09:57:35;7.50;;;4.55;;
27889;SDS011;15238;49.082;9.102;2023-06-22T09:59:35;8.60;;;4.53;;
27889;SDS011;15238;49.082;9.102;2023-06-22T10:01:36;8.10;;;4.85;;
27889;SDS011;15238;49.082;9.102;2023-06-22T10:03:37;9.98;;;5.13;;
27889;SDS011;15238;49.082;9.102;2023-06-22T10:05:37;7.13;;;4.10;;
27889;SDS011;15238;49.082;9.102;2023-06-22T10:07:38;6.95;;;4.38;;
27889;SDS011;15238;49.082;9.102;2023-06-22T10:09:42;11.48;;;4.85;;
27889;SDS011;15238;49.082;9.102;2023-06-22T10:11:42;10.68;;;4.93;;
27889;SDS011;15238;49.082;9.102;2023-06-22T10:13:43;11.32;;;4.85;;
27889;SDS011;15238;49.082;9.102;2023-06-22T10:15:43;9.55;;;4.90;;
27889;SDS011;15238;49.082;9.102;2023-06-22T10:17:49;5.35;;;4.10;;
27889;SDS011;15238;49.082;9.102;2023-06-22T10:19:50;11.35;;;5.07;;
27889;SDS011;15238;49.082;9.102;2023-06-22T10:21:50;9.52;;;5.15;;
27889;SDS011;15238;49.082;9.102;2023-06-22T10:23:53;10.48;;;4.50;;
27889;SDS011;15238;49.082;9.102;2023-06-22T10:25:55;10.45;;;5.00;;
27889;SDS011;15238;49.082;9.102;2023-06-22T10:27:58;10.38;;;5.32;;
27889;SDS011;15238;49.082;9.102;2023-06-22T10:29:58;7.88;;;4.50;;
27889;SDS011;15238;49.082;9.102;2023-06-22T10:31:59;8.60;;;4.70;;
27889;SDS011;15238;49.082;9.102;2023-06-22T10:33:59;10.20;;;4.63;;
27889;SDS011;15238;49.082;9.102;2023-06-22T10:36:01;11.77;;;4.82;;
27889;SDS011;15238;49.082;9.102;2023-06-22T10:38:02;5.25;;;4.63;;
27889;SDS011;15238;49.082;9.102;2023-06-22T10:40:03;7.32;;;4.45;;
27889;SDS011;15238;49.082;9.102;2023-06-22T10:42:05;7.35;;;4.93;;
27889;SDS011;15238;49.082;9.102;2023-06-22T10:44:06;6.45;;;4.40;;
27889;SDS011;15238;49.082;9.102;2023-06-22T10:46:06;13.52;;;5.05;;
27889;SDS011;15238;49.082;9.102;2023-06-22T10:48:07;10.60;;;5.20;;
27889;SDS011;15238;49.082;9.102;2023-06-22T10:50:07;7.72;;;4.40;;
27889;SDS011;15238;49.082;9.102;2023-06-22T10:52:08;10.52;;;4.60;;
27889;SDS011;15238;49.082;9.102;2023-06-22T10:54:11;13.98;;;5.00;;
27889;SDS011;15238;49.082;9.102;2023-06-22T10:56:19;8.68;;;4.40;;
27889;SDS011;15238;49.082;9.102;2023-06-22T10:58:19;13.50;;;4.95;;
27889;SDS011;15238;49.082;9.102;2023-06-22T11:00:20;9.80;;;4.20;;
27889;SDS011;15238;49.082;9.102;2023-06-22T11:02:21;8.02;;;5.25;;
27889;SDS011;15238;49.082;9.102;2023-06-22T11:04:21;8.57;;;4.60;;
27889;SDS011;15238;49.082;9.102;2023-06-22T11:06:22;11.13;;;5.80;;
27889;SDS011;15238;49.082;9.102;2023-06-22T11:08:23;11.27;;;4.70;;
27889;SDS011;15238;49.082;9.102;2023-06-22T11:10:23;10.45;;;4.75;;
27889;SDS011;15238;49.082;9.102;2023-06-22T11:12:24;13.00;;;4.90;;
27889;SDS011;15238;49.082;9.102;2023-06-22T11:14:24;11.18;;;4.30;;
27889;SDS011;15238;49.082;9.102;2023-06-22T11:16:25;17.13;;;5.03;;
27889;SDS011;15238;49.082;9.102;2023-06-22T11:18:26;10.90;;;4.55;;
27889;SDS011;15238;49.082;9.102;2023-06-22T11:20:26;17.50;;;5.00;;
27889;SDS011;15238;49.082;9.102;2023-06-22T11:22:27;10.48;;;4.93;;
27889;SDS011;15238;49.082;9.102;2023-06-22T11:24:27;7.53;;;4.38;;
27889;SDS011;15238;49.082;9.102;2023-06-22T11:26:28;15.98;;;5.53;;
27889;SDS011;15238;49.082;9.102;2023-06-22T11:28:28;10.18;;;5.00;;
27889;SDS011;15238;49.082;9.102;2023-06-22T11:30:29;9.18;;;4.55;;
27889;SDS011;15238;49.082;9.102;2023-06-22T11:32:30;10.45;;;4.60;;
27889;SDS011;15238;49.082;9.102;2023-06-22T11:34:30;9.18;;;4.70;;
27889;SDS011;15238;49.082;9.102;2023-06-22T11:36:31;5.88;;;4.28;;
27889;SDS011;15238;49.082;9.102;2023-06-22T11:38:33;7.53;;;4.20;;
27889;SDS011;15238;49.082;9.102;2023-06-22T11:40:33;10.80;;;4.60;;
27889;SDS011;15238;49.082;9.102;2023-06-22T11:42:34;11.05;;;4.80;;
27889;SDS011;15238;49.082;9.102;2023-06-22T11:44:35;10.40;;;4.65;;
27889;SDS011;15238;49.082;9.102;2023-06-22T11:46:35;13.93;;;4.47;;
27889;SDS011;15238;49.082;9.102;2023-06-22T11:48:36;10.35;;;4.63;;
27889;SDS011;15238;49.082;9.102;2023-06-22T11:50:36;10.23;;;4.78;;
27889;SDS011;15238;49.082;9.102;2023-06-22T11:52:37;7.85;;;4.50;;
27889;SDS011;15238;49.082;9.102;2023-06-22T11:54:37;8.05;;;4.32;;
27889;SDS011;15238;49.082;9.102;2023-06-22T11:56:38;10.45;;;5.03;;
27889;SDS011;15238;49.082;9.102;2023-06-22T11:58:39;10.02;;;4.95;;
27889;SDS011;15238;49.082;9.102;2023-06-22T12:00:39;14.98;;;4.28;;
27889;SDS011;15238;49.082;9.102;2023-06-22T12:02:41;11.60;;;4.65;;
27889;SDS011;15238;49.082;9.102;2023-06-22T12:04:42;10.30;;;5.30;;
27889;SDS011;15238;49.082;9.102;2023-06-22T12:06:42;10.57;;;4.70;;
27889;SDS011;15238;49.082;9.102;2023-06-22T12:08:43;11.60;;;4.78;;
27889;SDS011;15238;49.082;9.102;2023-06-22T12:10:44;9.48;;;4.18;;
27889;SDS011;15238;49.082;9.102;2023-06-22T12:12:44;10.15;;;4.55;;
27889;SDS011;15238;49.082;9.102;2023-06-22T12:14:45;13.60;;;4.63;;